Report METAR

 

LIRQ - Firenze/Peretola, Italy
Distance from station: N 59km
Dati ricevuti: 22/06/2018 21:50
Few Clouds
Few Clouds
 Vento da Variabile
Vento: Variabile 4 km/h
Temperatura: 23°C
P.to Rugiada: 17°C
Umidità: 69%
Barometro: 1013 hPa
Nuvole: Few Clouds
Visibility: 10 km
Cloud details: Few Clouds 914 m
2018/06/22 19:50 LIRQ 221950Z VRB02KT 9999 FEW030 23/17 Q1013
LIRS - Grosseto (it-Afb, Italy
Distance from station: SSO 59km
Dati ricevuti: 22/06/2018 21:55
Few Clouds
Few Clouds
 Vento da E
Vento: E 7 km/h
Temperatura: 23°C
P.to Rugiada: 19°C
Umidità: 78%
Barometro: 1012 hPa
Nuvole: Few Clouds
Visibility: 10 km
Cloud details: Few Clouds 549 m
2018/06/22 19:55 LIRS 221955Z 10004KT 9999 FEW018 23/19 Q1012
 
LIRP - Pisa (civ/It-Afb, Italy
Distance from station: ONO 87km
Dati ricevuti: 22/06/2018 21:45
Sereno
Sereno
 Vento da ESE
Vento: ESE 13 km/h
Temperatura: 25°C
P.to Rugiada: 18°C
Umidità: 65%
Barometro: 1012 hPa
Summary: Sereno
Visibility: superiore a 10 km
2018/06/22 19:45 LIRP 221945Z 12007KT CAVOK 25/18 Q1012 NOSIG
LIRX - Monte Calamita, Italy
Distance from station: SO 93km
Dati ricevuti: 22/06/2018 19:55
DATI Obsoleti
Nebbia
Nebbia
 Vento da SE
Vento: SE 15 km/h
Temperatura: 23°C
P.to Rugiada: 23°C
Umidità: 100%
Barometro: 1011 hPa
Summary: Nebbia
Visibility: 0 km
2018/06/22 17:55 LIRX 221755Z 13008KT 0000 FG VV/// 23/23 Q1011 RMK VIS MIN 0000 VIS MAR 30 M
 
LIQO - Mount Argentario, Italy
Distance from station: S 99km
Dati ricevuti: 22/06/2018 19:55
DATI Obsoleti
Parz. nuvoloso
Parz. nuvoloso
 Vento da SSE
Vento: SSE 28 km/h
Temperatura: 22°C
P.to Rugiada: 19°C
Umidità: 83%
Barometro: 1013 hPa
Nuvole: Parz. nuvoloso
Visibility: 10 km
Cloud details: Parz. nuvoloso 0 m
2018/06/22 17:55 LIQO 221755Z 15015KT 9999 SCT000 22/19 Q1013 RMK SCT SCT200 VAL CLD SCT NEBBIA INTER VIS MIN 6000NW
LIRZ - Perugia, Italy
Distance from station: E 100km
Dati ricevuti: 22/06/2018 21:50
Molto nuvoloso
Molto nuvoloso
 Vento da NNE
Vento: NNE 15 km/h
Temperatura: 20°C
P.to Rugiada: 18°C
Umidità: 88%
Barometro: 1015 hPa
Nuvole: Molto nuvoloso
Visibility: 10 km
Cloud details: Molto nuvoloso 1524 m
2018/06/22 19:50 LIRZ 221950Z 02008KT 9999 BKN050 20/18 Q1015